Main page
METAR-TAF:

METAR-TAF

Airports :

Kajaani Airport

Kajaani, Finland

latitude: 64-17N, longitude: 027-41E, elevation: 143 m

Current weather observation

The report was made 15 minutes ago, at 21:50 UTC
Wind 10 kt from the South/Southwest, varying between South and West/Southwest
Temperature 2°C
Humidity 93%
Pressure 975 hPa
Visibility 10 km or more
Overcast at a height of 1400 ft
light rain showers

METAR: EFKI 172150Z AUTO 20010KT 180V240 9999 -SHRA OVC014 02/01 Q0975

Time: 00:05 (22:05 UTC)

Forecast

The report was made 4 hours and 39 minutes ago, at 17:26 UTC
Forecast valid from 17 at 18 UTC to 17 at 22 UTC
Wind 9 kt from the Southwest
Visibility 10 km or more
Broken clouds at a height of 2000 ft
Temporary
from 17 at 18 UTC to 17 at 22 UTC
Broken clouds at a height of 1000 ft

TAF: EFKI 171726Z 1718/1722 22009KT 9999 BKN020 TEMPO 1718/1722 BKN010

Weather observations and forecasts of more than 4000 airports (METAR and TAF reports).

The available stations are represented by yellow and red dots on the map.

Hover mouse over dot to see the name of the station.

Then click to see weather observations and forecasts.

To change the map : click on the green buttons with a black cross to zoom in, on the green button with a dash to zoom out, or on the green arrows for adjacent maps.


METAR-TAF: